sensor_id;sensor_type;location;lat;lon;timestamp;P1;durP1;ratioP1;P2;durP2;ratioP2
68951;SDS011;56000;51.146;17.112;2023-02-01T00:00:51;6.70;;;1.50;;
68951;SDS011;56000;51.146;17.112;2023-02-01T00:03:29;4.00;;;1.60;;
68951;SDS011;56000;51.146;17.112;2023-02-01T00:06:02;11.20;;;1.50;;
68951;SDS011;56000;51.146;17.112;2023-02-01T00:08:36;4.80;;;1.40;;
68951;SDS011;56000;51.146;17.112;2023-02-01T00:11:11;7.90;;;1.50;;
68951;SDS011;56000;51.146;17.112;2023-02-01T00:13:44;6.00;;;1.20;;
68951;SDS011;56000;51.146;17.112;2023-02-01T00:16:19;5.50;;;1.60;;
68951;SDS011;56000;51.146;17.112;2023-02-01T00:18:57;6.70;;;1.30;;
68951;SDS011;56000;51.146;17.112;2023-02-01T00:21:32;8.20;;;2.10;;
68951;SDS011;56000;51.146;17.112;2023-02-01T00:24:06;3.90;;;1.30;;
68951;SDS011;56000;51.146;17.112;2023-02-01T00:26:41;5.30;;;1.60;;
68951;SDS011;56000;51.146;17.112;2023-02-01T00:29:17;8.70;;;1.60;;
68951;SDS011;56000;51.146;17.112;2023-02-01T00:31:52;10.20;;;1.90;;
68951;SDS011;56000;51.146;17.112;2023-02-01T00:34:25;7.50;;;1.60;;
68951;SDS011;56000;51.146;17.112;2023-02-01T00:36:58;7.70;;;1.80;;
68951;SDS011;56000;51.146;17.112;2023-02-01T00:39:31;7.30;;;1.60;;
68951;SDS011;56000;51.146;17.112;2023-02-01T00:42:04;5.30;;;1.70;;
68951;SDS011;56000;51.146;17.112;2023-02-01T00:44:38;4.60;;;1.50;;
68951;SDS011;56000;51.146;17.112;2023-02-01T00:47:11;8.70;;;1.60;;
68951;SDS011;56000;51.146;17.112;2023-02-01T00:49:44;11.70;;;1.90;;
68951;SDS011;56000;51.146;17.112;2023-02-01T00:52:17;7.40;;;2.10;;
68951;SDS011;56000;51.146;17.112;2023-02-01T00:54:50;6.00;;;1.80;;
68951;SDS011;56000;51.146;17.112;2023-02-01T00:57:23;13.70;;;2.00;;
68951;SDS011;56000;51.146;17.112;2023-02-01T00:59:56;6.40;;;1.70;;
68951;SDS011;56000;51.146;17.112;2023-02-01T01:02:30;7.80;;;2.00;;
68951;SDS011;56000;51.146;17.112;2023-02-01T01:05:03;8.20;;;1.60;;
68951;SDS011;56000;51.146;17.112;2023-02-01T01:07:36;10.50;;;2.10;;
68951;SDS011;56000;51.146;17.112;2023-02-01T01:10:12;8.30;;;2.00;;
68951;SDS011;56000;51.146;17.112;2023-02-01T01:12:45;6.10;;;2.00;;
68951;SDS011;56000;51.146;17.112;2023-02-01T01:15:18;10.60;;;2.10;;
68951;SDS011;56000;51.146;17.112;2023-02-01T01:17:51;9.30;;;1.90;;
68951;SDS011;56000;51.146;17.112;2023-02-01T01:20:24;11.30;;;2.20;;
68951;SDS011;56000;51.146;17.112;2023-02-01T01:22:57;9.20;;;2.10;;
68951;SDS011;56000;51.146;17.112;2023-02-01T01:25:30;5.50;;;2.40;;
68951;SDS011;56000;51.146;17.112;2023-02-01T01:28:04;10.70;;;2.20;;
68951;SDS011;56000;51.146;17.112;2023-02-01T01:30:37;5.40;;;1.60;;
68951;SDS011;56000;51.146;17.112;2023-02-01T01:33:10;9.10;;;1.90;;
68951;SDS011;56000;51.146;17.112;2023-02-01T01:35:43;5.60;;;1.80;;
68951;SDS011;56000;51.146;17.112;2023-02-01T01:38:16;7.20;;;2.10;;
68951;SDS011;56000;51.146;17.112;2023-02-01T01:40:50;6.10;;;1.60;;
68951;SDS011;56000;51.146;17.112;2023-02-01T01:43:23;5.70;;;1.70;;
68951;SDS011;56000;51.146;17.112;2023-02-01T01:45:57;8.10;;;1.70;;
68951;SDS011;56000;51.146;17.112;2023-02-01T01:48:30;9.70;;;2.10;;
68951;SDS011;56000;51.146;17.112;2023-02-01T01:51:05;4.40;;;1.50;;
68951;SDS011;56000;51.146;17.112;2023-02-01T01:53:45;7.10;;;1.40;;
68951;SDS011;56000;51.146;17.112;2023-02-01T01:56:24;5.10;;;1.20;;
68951;SDS011;56000;51.146;17.112;2023-02-01T01:58:59;6.40;;;1.70;;
68951;SDS011;56000;51.146;17.112;2023-02-01T02:01:32;9.20;;;1.60;;
68951;SDS011;56000;51.146;17.112;2023-02-01T02:04:06;4.10;;;1.80;;
68951;SDS011;56000;51.146;17.112;2023-02-01T02:06:45;3.90;;;1.50;;
68951;SDS011;56000;51.146;17.112;2023-02-01T02:09:24;8.00;;;2.10;;
68951;SDS011;56000;51.146;17.112;2023-02-01T02:11:57;10.40;;;2.00;;
68951;SDS011;56000;51.146;17.112;2023-02-01T02:14:30;7.40;;;1.80;;
68951;SDS011;56000;51.146;17.112;2023-02-01T02:17:10;8.00;;;1.50;;
68951;SDS011;56000;51.146;17.112;2023-02-01T02:23:38;11.60;;;2.00;;
68951;SDS011;56000;51.146;17.112;2023-02-01T02:26:52;5.80;;;2.00;;
68951;SDS011;56000;51.146;17.112;2023-02-01T02:29:49;7.10;;;2.00;;
68951;SDS011;56000;51.146;17.112;2023-02-01T02:33:12;5.00;;;1.60;;
68951;SDS011;56000;51.146;17.112;2023-02-01T02:36:09;11.40;;;2.60;;
68951;SDS011;56000;51.146;17.112;2023-02-01T02:38:49;12.50;;;2.40;;
68951;SDS011;56000;51.146;17.112;2023-02-01T02:41:33;13.40;;;2.60;;
68951;SDS011;56000;51.146;17.112;2023-02-01T02:44:34;12.70;;;2.40;;
68951;SDS011;56000;51.146;17.112;2023-02-01T02:47:35;7.80;;;2.30;;
68951;SDS011;56000;51.146;17.112;2023-02-01T02:50:20;9.90;;;2.30;;
68951;SDS011;56000;51.146;17.112;2023-02-01T02:53:17;12.00;;;2.60;;
68951;SDS011;56000;51.146;17.112;2023-02-01T02:56:14;12.00;;;2.80;;
68951;SDS011;56000;51.146;17.112;2023-02-01T02:59:06;10.50;;;2.80;;
68951;SDS011;56000;51.146;17.112;2023-02-01T03:01:59;14.30;;;2.80;;
68951;SDS011;56000;51.146;17.112;2023-02-01T03:04:53;24.60;;;3.80;;
68951;SDS011;56000;51.146;17.112;2023-02-01T03:07:52;20.50;;;3.20;;
68951;SDS011;56000;51.146;17.112;2023-02-01T03:10:35;14.10;;;2.60;;
68951;SDS011;56000;51.146;17.112;2023-02-01T03:13:18;13.90;;;2.70;;
68951;SDS011;56000;51.146;17.112;2023-02-01T03:16:00;12.40;;;2.80;;
68951;SDS011;56000;51.146;17.112;2023-02-01T03:18:38;13.70;;;3.00;;
68951;SDS011;56000;51.146;17.112;2023-02-01T03:21:20;13.80;;;3.20;;
68951;SDS011;56000;51.146;17.112;2023-02-01T03:23:57;16.30;;;2.40;;
68951;SDS011;56000;51.146;17.112;2023-02-01T03:26:34;16.40;;;3.60;;
68951;SDS011;56000;51.146;17.112;2023-02-01T03:29:15;13.40;;;2.50;;
68951;SDS011;56000;51.146;17.112;2023-02-01T03:31:53;15.10;;;3.10;;
68951;SDS011;56000;51.146;17.112;2023-02-01T03:34:26;18.60;;;3.40;;
68951;SDS011;56000;51.146;17.112;2023-02-01T03:37:00;10.90;;;3.00;;
68951;SDS011;56000;51.146;17.112;2023-02-01T03:39:39;15.00;;;2.60;;
68951;SDS011;56000;51.146;17.112;2023-02-01T03:42:19;14.50;;;2.80;;
68951;SDS011;56000;51.146;17.112;2023-02-01T03:44:57;10.00;;;2.30;;
68951;SDS011;56000;51.146;17.112;2023-02-01T03:47:39;13.40;;;2.80;;
68951;SDS011;56000;51.146;17.112;2023-02-01T03:50:15;15.30;;;3.20;;
68951;SDS011;56000;51.146;17.112;2023-02-01T03:52:54;17.00;;;3.70;;
68951;SDS011;56000;51.146;17.112;2023-02-01T03:55:32;14.70;;;3.40;;
68951;SDS011;56000;51.146;17.112;2023-02-01T03:58:09;20.60;;;3.60;;
68951;SDS011;56000;51.146;17.112;2023-02-01T04:00:49;22.30;;;3.00;;
68951;SDS011;56000;51.146;17.112;2023-02-01T04:03:24;17.80;;;3.60;;
68951;SDS011;56000;51.146;17.112;2023-02-01T04:05:58;13.00;;;2.90;;
68951;SDS011;56000;51.146;17.112;2023-02-01T04:08:31;20.50;;;3.20;;
68951;SDS011;56000;51.146;17.112;2023-02-01T04:11:05;13.50;;;3.80;;
68951;SDS011;56000;51.146;17.112;2023-02-01T04:13:38;13.00;;;3.10;;
68951;SDS011;56000;51.146;17.112;2023-02-01T04:16:11;17.40;;;2.20;;
68951;SDS011;56000;51.146;17.112;2023-02-01T04:18:44;16.70;;;2.60;;
68951;SDS011;56000;51.146;17.112;2023-02-01T04:21:17;10.10;;;2.70;;
68951;SDS011;56000;51.146;17.112;2023-02-01T04:23:51;10.00;;;2.40;;
68951;SDS011;56000;51.146;17.112;2023-02-01T04:26:24;15.00;;;2.90;;
68951;SDS011;56000;51.146;17.112;2023-02-01T04:28:57;12.60;;;3.20;;
68951;SDS011;56000;51.146;17.112;2023-02-01T04:31:30;14.90;;;3.20;;
68951;SDS011;56000;51.146;17.112;2023-02-01T04:34:05;9.90;;;2.70;;
68951;SDS011;56000;51.146;17.112;2023-02-01T04:36:38;10.60;;;3.00;;
68951;SDS011;56000;51.146;17.112;2023-02-01T04:39:13;14.20;;;3.20;;
68951;SDS011;56000;51.146;17.112;2023-02-01T04:41:45;16.20;;;2.90;;
68951;SDS011;56000;51.146;17.112;2023-02-01T04:44:19;10.00;;;3.30;;
68951;SDS011;56000;51.146;17.112;2023-02-01T04:46:53;8.90;;;2.80;;
68951;SDS011;56000;51.146;17.112;2023-02-01T04:49:26;16.70;;;3.10;;
68951;SDS011;56000;51.146;17.112;2023-02-01T04:51:59;20.10;;;3.00;;
68951;SDS011;56000;51.146;17.112;2023-02-01T04:54:32;13.20;;;2.70;;
68951;SDS011;56000;51.146;17.112;2023-02-01T04:57:05;14.90;;;3.40;;
68951;SDS011;56000;51.146;17.112;2023-02-01T04:59:38;12.60;;;3.10;;
68951;SDS011;56000;51.146;17.112;2023-02-01T05:02:11;18.90;;;3.30;;
68951;SDS011;56000;51.146;17.112;2023-02-01T05:04:44;13.90;;;3.30;;
68951;SDS011;56000;51.146;17.112;2023-02-01T05:07:17;14.00;;;2.60;;
68951;SDS011;56000;51.146;17.112;2023-02-01T05:09:50;11.40;;;2.90;;
68951;SDS011;56000;51.146;17.112;2023-02-01T05:12:24;16.00;;;3.20;;
68951;SDS011;56000;51.146;17.112;2023-02-01T05:15:14;22.20;;;3.20;;
68951;SDS011;56000;51.146;17.112;2023-02-01T05:17:47;14.20;;;3.10;;
68951;SDS011;56000;51.146;17.112;2023-02-01T05:20:20;13.30;;;2.50;;
68951;SDS011;56000;51.146;17.112;2023-02-01T05:22:54;10.40;;;2.80;;
68951;SDS011;56000;51.146;17.112;2023-02-01T05:25:27;17.80;;;4.00;;
68951;SDS011;56000;51.146;17.112;2023-02-01T05:28:00;11.40;;;2.90;;
68951;SDS011;56000;51.146;17.112;2023-02-01T05:30:35;17.80;;;2.70;;
68951;SDS011;56000;51.146;17.112;2023-02-01T05:33:11;10.90;;;3.30;;
68951;SDS011;56000;51.146;17.112;2023-02-01T05:35:44;18.70;;;3.10;;
68951;SDS011;56000;51.146;17.112;2023-02-01T05:38:17;17.50;;;2.20;;
68951;SDS011;56000;51.146;17.112;2023-02-01T05:40:50;11.40;;;2.40;;
68951;SDS011;56000;51.146;17.112;2023-02-01T05:43:24;14.20;;;2.90;;
68951;SDS011;56000;51.146;17.112;2023-02-01T05:45:57;11.60;;;2.60;;
68951;SDS011;56000;51.146;17.112;2023-02-01T05:48:30;12.30;;;3.00;;
68951;SDS011;56000;51.146;17.112;2023-02-01T05:51:03;8.70;;;2.60;;
68951;SDS011;56000;51.146;17.112;2023-02-01T05:53:37;14.70;;;2.30;;
68951;SDS011;56000;51.146;17.112;2023-02-01T05:56:10;12.10;;;2.90;;
68951;SDS011;56000;51.146;17.112;2023-02-01T05:58:43;10.50;;;2.80;;
68951;SDS011;56000;51.146;17.112;2023-02-01T06:01:16;13.60;;;2.60;;
68951;SDS011;56000;51.146;17.112;2023-02-01T06:03:49;17.90;;;2.50;;
68951;SDS011;56000;51.146;17.112;2023-02-01T06:06:22;18.10;;;3.30;;
68951;SDS011;56000;51.146;17.112;2023-02-01T06:08:55;10.40;;;2.20;;
68951;SDS011;56000;51.146;17.112;2023-02-01T06:11:29;10.80;;;3.20;;
68951;SDS011;56000;51.146;17.112;2023-02-01T06:14:03;12.10;;;3.00;;
68951;SDS011;56000;51.146;17.112;2023-02-01T06:16:37;11.60;;;3.00;;
68951;SDS011;56000;51.146;17.112;2023-02-01T06:19:10;19.60;;;3.00;;
68951;SDS011;56000;51.146;17.112;2023-02-01T06:21:44;19.80;;;2.80;;
68951;SDS011;56000;51.146;17.112;2023-02-01T06:24:17;14.50;;;2.40;;
68951;SDS011;56000;51.146;17.112;2023-02-01T06:26:50;13.20;;;3.10;;
68951;SDS011;56000;51.146;17.112;2023-02-01T06:29:23;14.20;;;2.60;;
68951;SDS011;56000;51.146;17.112;2023-02-01T06:31:56;14.50;;;3.30;;
68951;SDS011;56000;51.146;17.112;2023-02-01T06:34:29;13.50;;;3.20;;
68951;SDS011;56000;51.146;17.112;2023-02-01T06:37:02;10.90;;;2.50;;
68951;SDS011;56000;51.146;17.112;2023-02-01T06:39:36;10.20;;;2.20;;
68951;SDS011;56000;51.146;17.112;2023-02-01T06:42:09;19.30;;;2.90;;
68951;SDS011;56000;51.146;17.112;2023-02-01T06:44:42;15.00;;;3.50;;
68951;SDS011;56000;51.146;17.112;2023-02-01T06:47:15;12.60;;;3.50;;
68951;SDS011;56000;51.146;17.112;2023-02-01T06:49:48;17.00;;;3.20;;
68951;SDS011;56000;51.146;17.112;2023-02-01T06:52:21;12.10;;;3.00;;
68951;SDS011;56000;51.146;17.112;2023-02-01T06:54:54;13.10;;;3.10;;
68951;SDS011;56000;51.146;17.112;2023-02-01T06:57:28;23.50;;;3.40;;
68951;SDS011;56000;51.146;17.112;2023-02-01T07:00:04;8.70;;;2.60;;
68951;SDS011;56000;51.146;17.112;2023-02-01T07:02:38;11.30;;;2.40;;
68951;SDS011;56000;51.146;17.112;2023-02-01T07:05:11;12.80;;;3.40;;
68951;SDS011;56000;51.146;17.112;2023-02-01T07:07:45;13.20;;;2.90;;
68951;SDS011;56000;51.146;17.112;2023-02-01T07:10:18;10.70;;;2.40;;
68951;SDS011;56000;51.146;17.112;2023-02-01T07:12:52;11.00;;;2.90;;
68951;SDS011;56000;51.146;17.112;2023-02-01T07:15:27;12.50;;;3.20;;
68951;SDS011;56000;51.146;17.112;2023-02-01T07:18:00;18.20;;;3.30;;
68951;SDS011;56000;51.146;17.112;2023-02-01T07:20:33;14.40;;;3.00;;
68951;SDS011;56000;51.146;17.112;2023-02-01T07:23:07;9.20;;;2.40;;
68951;SDS011;56000;51.146;17.112;2023-02-01T07:25:41;8.70;;;3.00;;
68951;SDS011;56000;51.146;17.112;2023-02-01T07:28:15;20.00;;;2.80;;
68951;SDS011;56000;51.146;17.112;2023-02-01T07:30:48;11.40;;;3.00;;
68951;SDS011;56000;51.146;17.112;2023-02-01T07:33:22;15.70;;;3.20;;
68951;SDS011;56000;51.146;17.112;2023-02-01T07:35:56;9.50;;;2.50;;
68951;SDS011;56000;51.146;17.112;2023-02-01T07:38:31;16.90;;;2.90;;
68951;SDS011;56000;51.146;17.112;2023-02-01T07:41:06;11.10;;;2.80;;
68951;SDS011;56000;51.146;17.112;2023-02-01T07:43:39;14.70;;;3.30;;
68951;SDS011;56000;51.146;17.112;2023-02-01T07:46:13;14.60;;;3.20;;
68951;SDS011;56000;51.146;17.112;2023-02-01T07:48:46;11.50;;;3.40;;
68951;SDS011;56000;51.146;17.112;2023-02-01T07:51:19;11.70;;;2.80;;
68951;SDS011;56000;51.146;17.112;2023-02-01T07:53:52;17.20;;;2.90;;
68951;SDS011;56000;51.146;17.112;2023-02-01T07:56:26;16.90;;;2.90;;
68951;SDS011;56000;51.146;17.112;2023-02-01T07:58:59;11.00;;;2.80;;
68951;SDS011;56000;51.146;17.112;2023-02-01T08:01:32;9.10;;;2.50;;
68951;SDS011;56000;51.146;17.112;2023-02-01T08:04:05;13.00;;;3.00;;
68951;SDS011;56000;51.146;17.112;2023-02-01T08:06:40;16.70;;;3.50;;
68951;SDS011;56000;51.146;17.112;2023-02-01T08:09:14;16.60;;;3.40;;
68951;SDS011;56000;51.146;17.112;2023-02-01T08:11:47;14.40;;;2.80;;
68951;SDS011;56000;51.146;17.112;2023-02-01T08:14:20;11.10;;;3.00;;
68951;SDS011;56000;51.146;17.112;2023-02-01T08:16:53;10.20;;;2.50;;
68951;SDS011;56000;51.146;17.112;2023-02-01T08:19:26;7.20;;;2.30;;
68951;SDS011;56000;51.146;17.112;2023-02-01T08:22:00;12.20;;;3.30;;
68951;SDS011;56000;51.146;17.112;2023-02-01T08:24:36;20.70;;;3.30;;
68951;SDS011;56000;51.146;17.112;2023-02-01T08:27:11;13.40;;;2.90;;
68951;SDS011;56000;51.146;17.112;2023-02-01T08:29:45;12.70;;;3.10;;
68951;SDS011;56000;51.146;17.112;2023-02-01T08:32:18;11.00;;;2.70;;
68951;SDS011;56000;51.146;17.112;2023-02-01T08:34:51;7.10;;;2.60;;
68951;SDS011;56000;51.146;17.112;2023-02-01T08:37:24;11.90;;;3.40;;
68951;SDS011;56000;51.146;17.112;2023-02-01T08:39:57;10.40;;;2.70;;
68951;SDS011;56000;51.146;17.112;2023-02-01T08:42:30;18.50;;;3.50;;
68951;SDS011;56000;51.146;17.112;2023-02-01T08:45:24;16.80;;;3.00;;
68951;SDS011;56000;51.146;17.112;2023-02-01T08:47:59;14.00;;;3.10;;
68951;SDS011;56000;51.146;17.112;2023-02-01T08:50:32;15.60;;;3.60;;
68951;SDS011;56000;51.146;17.112;2023-02-01T08:53:05;12.90;;;3.10;;
68951;SDS011;56000;51.146;17.112;2023-02-01T08:55:38;14.90;;;3.80;;
68951;SDS011;56000;51.146;17.112;2023-02-01T08:58:11;8.70;;;3.20;;
68951;SDS011;56000;51.146;17.112;2023-02-01T09:00:46;8.30;;;3.30;;
68951;SDS011;56000;51.146;17.112;2023-02-01T09:03:20;19.70;;;3.40;;
68951;SDS011;56000;51.146;17.112;2023-02-01T09:05:57;12.70;;;2.90;;
68951;SDS011;56000;51.146;17.112;2023-02-01T09:08:33;10.90;;;2.90;;
68951;SDS011;56000;51.146;17.112;2023-02-01T09:11:07;8.60;;;2.40;;
68951;SDS011;56000;51.146;17.112;2023-02-01T09:13:42;10.60;;;3.10;;
68951;SDS011;56000;51.146;17.112;2023-02-01T09:16:15;23.60;;;3.70;;
68951;SDS011;56000;51.146;17.112;2023-02-01T09:18:49;11.80;;;3.10;;
68951;SDS011;56000;51.146;17.112;2023-02-01T09:21:36;12.80;;;2.80;;
68951;SDS011;56000;51.146;17.112;2023-02-01T09:24:10;15.30;;;2.90;;
68951;SDS011;56000;51.146;17.112;2023-02-01T09:26:43;12.30;;;2.90;;
68951;SDS011;56000;51.146;17.112;2023-02-01T09:29:16;12.70;;;2.90;;
68951;SDS011;56000;51.146;17.112;2023-02-01T09:31:49;12.70;;;3.40;;
68951;SDS011;56000;51.146;17.112;2023-02-01T09:34:32;13.00;;;3.10;;
68951;SDS011;56000;51.146;17.112;2023-02-01T09:37:05;14.80;;;3.00;;
68951;SDS011;56000;51.146;17.112;2023-02-01T09:39:38;13.30;;;3.00;;
68951;SDS011;56000;51.146;17.112;2023-02-01T09:42:24;9.70;;;2.90;;
68951;SDS011;56000;51.146;17.112;2023-02-01T09:45:13;8.60;;;2.70;;
68951;SDS011;56000;51.146;17.112;2023-02-01T09:47:54;8.30;;;3.50;;
68951;SDS011;56000;51.146;17.112;2023-02-01T09:50:33;6.30;;;2.70;;
68951;SDS011;56000;51.146;17.112;2023-02-01T09:53:12;6.10;;;2.60;;
68951;SDS011;56000;51.146;17.112;2023-02-01T09:55:53;11.40;;;3.30;;
68951;SDS011;56000;51.146;17.112;2023-02-01T09:58:32;5.70;;;2.00;;
68951;SDS011;56000;51.146;17.112;2023-02-01T10:01:21;5.30;;;1.80;;
68951;SDS011;56000;51.146;17.112;2023-02-01T10:03:59;9.90;;;4.30;;
68951;SDS011;56000;51.146;17.112;2023-02-01T10:09:44;6.40;;;2.50;;
68951;SDS011;56000;51.146;17.112;2023-02-01T10:13:01;10.20;;;3.00;;
68951;SDS011;56000;51.146;17.112;2023-02-01T10:15:45;7.80;;;2.50;;
68951;SDS011;56000;51.146;17.112;2023-02-01T10:18:34;8.20;;;2.80;;
68951;SDS011;56000;51.146;17.112;2023-02-01T10:21:27;11.00;;;3.20;;
68951;SDS011;56000;51.146;17.112;2023-02-01T10:27:14;10.90;;;2.70;;
68951;SDS011;56000;51.146;17.112;2023-02-01T10:29:54;11.30;;;3.10;;
68951;SDS011;56000;51.146;17.112;2023-02-01T10:32:32;7.60;;;3.00;;
68951;SDS011;56000;51.146;17.112;2023-02-01T10:35:11;10.50;;;3.00;;
68951;SDS011;56000;51.146;17.112;2023-02-01T10:37:46;8.80;;;3.00;;
68951;SDS011;56000;51.146;17.112;2023-02-01T10:40:21;9.90;;;2.90;;
68951;SDS011;56000;51.146;17.112;2023-02-01T10:42:58;7.00;;;2.00;;
68951;SDS011;56000;51.146;17.112;2023-02-01T10:45:33;7.90;;;2.60;;
68951;SDS011;56000;51.146;17.112;2023-02-01T10:48:09;9.30;;;2.60;;
68951;SDS011;56000;51.146;17.112;2023-02-01T10:50:46;7.40;;;2.70;;
68951;SDS011;56000;51.146;17.112;2023-02-01T10:53:28;9.40;;;3.00;;
68951;SDS011;56000;51.146;17.112;2023-02-01T10:56:09;11.40;;;3.00;;
68951;SDS011;56000;51.146;17.112;2023-02-01T10:58:47;11.30;;;2.80;;
68951;SDS011;56000;51.146;17.112;2023-02-01T11:01:23;5.20;;;2.20;;
68951;SDS011;56000;51.146;17.112;2023-02-01T11:04:00;11.80;;;3.90;;
68951;SDS011;56000;51.146;17.112;2023-02-01T11:06:35;10.10;;;2.80;;
68951;SDS011;56000;51.146;17.112;2023-02-01T11:09:18;9.40;;;3.50;;
68951;SDS011;56000;51.146;17.112;2023-02-01T11:11:59;9.70;;;3.00;;
68951;SDS011;56000;51.146;17.112;2023-02-01T11:14:39;11.40;;;2.70;;
68951;SDS011;56000;51.146;17.112;2023-02-01T11:17:23;13.60;;;3.70;;
68951;SDS011;56000;51.146;17.112;2023-02-01T11:20:00;10.30;;;2.90;;
68951;SDS011;56000;51.146;17.112;2023-02-01T11:22:35;10.20;;;2.80;;
68951;SDS011;56000;51.146;17.112;2023-02-01T11:25:12;9.10;;;3.60;;
68951;SDS011;56000;51.146;17.112;2023-02-01T11:27:48;9.00;;;2.80;;
68951;SDS011;56000;51.146;17.112;2023-02-01T11:30:33;7.60;;;2.60;;
68951;SDS011;56000;51.146;17.112;2023-02-01T11:33:09;10.90;;;2.90;;
68951;SDS011;56000;51.146;17.112;2023-02-01T11:35:48;9.70;;;3.00;;
68951;SDS011;56000;51.146;17.112;2023-02-01T11:38:25;9.10;;;2.70;;
68951;SDS011;56000;51.146;17.112;2023-02-01T11:41:14;11.50;;;2.70;;
68951;SDS011;56000;51.146;17.112;2023-02-01T11:43:56;8.40;;;2.80;;
68951;SDS011;56000;51.146;17.112;2023-02-01T11:46:32;10.20;;;2.30;;
68951;SDS011;56000;51.146;17.112;2023-02-01T11:49:22;4.10;;;2.30;;
68951;SDS011;56000;51.146;17.112;2023-02-01T11:52:03;4.40;;;2.30;;
68951;SDS011;56000;51.146;17.112;2023-02-01T11:54:58;8.20;;;2.70;;
68951;SDS011;56000;51.146;17.112;2023-02-01T11:57:48;8.70;;;3.20;;
68951;SDS011;56000;51.146;17.112;2023-02-01T12:00:43;5.40;;;2.60;;
68951;SDS011;56000;51.146;17.112;2023-02-01T12:03:39;6.60;;;2.40;;
68951;SDS011;56000;51.146;17.112;2023-02-01T12:06:35;6.40;;;2.20;;
68951;SDS011;56000;51.146;17.112;2023-02-01T12:09:25;8.80;;;3.00;;
68951;SDS011;56000;51.146;17.112;2023-02-01T12:12:13;5.80;;;2.40;;
68951;SDS011;56000;51.146;17.112;2023-02-01T12:14:59;5.20;;;2.70;;
68951;SDS011;56000;51.146;17.112;2023-02-01T12:18:22;7.90;;;2.50;;
68951;SDS011;56000;51.146;17.112;2023-02-01T12:21:20;5.50;;;2.60;;
68951;SDS011;56000;51.146;17.112;2023-02-01T12:24:24;13.00;;;3.10;;
68951;SDS011;56000;51.146;17.112;2023-02-01T12:27:16;8.80;;;2.70;;
68951;SDS011;56000;51.146;17.112;2023-02-01T12:30:17;6.60;;;2.30;;
68951;SDS011;56000;51.146;17.112;2023-02-01T12:33:07;5.50;;;2.20;;
68951;SDS011;56000;51.146;17.112;2023-02-01T12:35:55;6.00;;;2.80;;
68951;SDS011;56000;51.146;17.112;2023-02-01T12:38:57;6.50;;;2.50;;
68951;SDS011;56000;51.146;17.112;2023-02-01T12:41:50;6.90;;;2.30;;
68951;SDS011;56000;51.146;17.112;2023-02-01T12:44:37;6.50;;;2.30;;
68951;SDS011;56000;51.146;17.112;2023-02-01T12:47:20;3.10;;;2.20;;
68951;SDS011;56000;51.146;17.112;2023-02-01T12:50:00;4.20;;;1.90;;
68951;SDS011;56000;51.146;17.112;2023-02-01T12:52:39;8.40;;;2.50;;
68951;SDS011;56000;51.146;17.112;2023-02-01T12:55:21;4.80;;;2.20;;
68951;SDS011;56000;51.146;17.112;2023-02-01T12:58:01;7.20;;;2.60;;
68951;SDS011;56000;51.146;17.112;2023-02-01T13:00:43;5.50;;;2.40;;
68951;SDS011;56000;51.146;17.112;2023-02-01T13:03:25;4.70;;;2.00;;
68951;SDS011;56000;51.146;17.112;2023-02-01T13:06:15;7.80;;;2.50;;
68951;SDS011;56000;51.146;17.112;2023-02-01T13:08:53;5.50;;;2.30;;
68951;SDS011;56000;51.146;17.112;2023-02-01T13:11:33;6.00;;;2.90;;
68951;SDS011;56000;51.146;17.112;2023-02-01T13:14:12;8.30;;;2.80;;
68951;SDS011;56000;51.146;17.112;2023-02-01T13:16:56;4.50;;;2.40;;
68951;SDS011;56000;51.146;17.112;2023-02-01T13:19:41;5.50;;;1.90;;
68951;SDS011;56000;51.146;17.112;2023-02-01T13:22:19;8.30;;;2.20;;
68951;SDS011;56000;51.146;17.112;2023-02-01T13:24:56;8.50;;;2.20;;
68951;SDS011;56000;51.146;17.112;2023-02-01T13:27:32;5.20;;;2.10;;
68951;SDS011;56000;51.146;17.112;2023-02-01T13:30:07;3.50;;;2.10;;
68951;SDS011;56000;51.146;17.112;2023-02-01T13:33:24;4.90;;;2.00;;
68951;SDS011;56000;51.146;17.112;2023-02-01T13:36:41;4.30;;;2.00;;
68951;SDS011;56000;51.146;17.112;2023-02-01T13:39:43;9.70;;;2.40;;
68951;SDS011;56000;51.146;17.112;2023-02-01T13:42:25;5.80;;;2.40;;
68951;SDS011;56000;51.146;17.112;2023-02-01T13:45:02;8.60;;;2.30;;
68951;SDS011;56000;51.146;17.112;2023-02-01T13:47:45;3.70;;;2.20;;
68951;SDS011;56000;51.146;17.112;2023-02-01T13:50:25;6.90;;;1.90;;
68951;SDS011;56000;51.146;17.112;2023-02-01T13:53:02;4.80;;;2.10;;
68951;SDS011;56000;51.146;17.112;2023-02-01T13:55:46;6.50;;;2.00;;
68951;SDS011;56000;51.146;17.112;2023-02-01T13:58:32;4.60;;;2.00;;
68951;SDS011;56000;51.146;17.112;2023-02-01T14:04:48;3.60;;;1.70;;
68951;SDS011;56000;51.146;17.112;2023-02-01T14:07:23;6.50;;;2.50;;
68951;SDS011;56000;51.146;17.112;2023-02-01T14:09:57;9.90;;;2.40;;
68951;SDS011;56000;51.146;17.112;2023-02-01T14:12:50;6.60;;;2.30;;
68951;SDS011;56000;51.146;17.112;2023-02-01T14:15:37;5.10;;;1.90;;
68951;SDS011;56000;51.146;17.112;2023-02-01T14:21:49;3.50;;;1.60;;
68951;SDS011;56000;51.146;17.112;2023-02-01T14:24:30;4.40;;;1.90;;
68951;SDS011;56000;51.146;17.112;2023-02-01T14:27:16;6.20;;;2.40;;
68951;SDS011;56000;51.146;17.112;2023-02-01T14:29:54;5.20;;;2.50;;
68951;SDS011;56000;51.146;17.112;2023-02-01T14:32:33;5.20;;;1.90;;
68951;SDS011;56000;51.146;17.112;2023-02-01T14:35:25;5.60;;;2.30;;
68951;SDS011;56000;51.146;17.112;2023-02-01T14:38:01;5.40;;;1.90;;
68951;SDS011;56000;51.146;17.112;2023-02-01T14:40:37;7.70;;;2.20;;
68951;SDS011;56000;51.146;17.112;2023-02-01T14:43:11;7.10;;;1.90;;
68951;SDS011;56000;51.146;17.112;2023-02-01T14:46:02;8.40;;;2.50;;
68951;SDS011;56000;51.146;17.112;2023-02-01T14:48:48;7.50;;;2.90;;
68951;SDS011;56000;51.146;17.112;2023-02-01T14:51:21;8.10;;;4.10;;
68951;SDS011;56000;51.146;17.112;2023-02-01T14:53:56;5.80;;;2.20;;
68951;SDS011;56000;51.146;17.112;2023-02-01T14:56:30;9.70;;;2.70;;
68951;SDS011;56000;51.146;17.112;2023-02-01T14:59:08;9.00;;;3.20;;
68951;SDS011;56000;51.146;17.112;2023-02-01T15:04:26;5.90;;;2.20;;
68951;SDS011;56000;51.146;17.112;2023-02-01T15:07:13;5.80;;;2.50;;
68951;SDS011;56000;51.146;17.112;2023-02-01T15:09:48;6.70;;;2.20;;
68951;SDS011;56000;51.146;17.112;2023-02-01T15:12:25;9.50;;;2.50;;
68951;SDS011;56000;51.146;17.112;2023-02-01T15:15:13;9.20;;;3.00;;
68951;SDS011;56000;51.146;17.112;2023-02-01T15:17:56;13.40;;;2.90;;
68951;SDS011;56000;51.146;17.112;2023-02-01T15:20:31;10.90;;;3.30;;
68951;SDS011;56000;51.146;17.112;2023-02-01T15:23:15;10.50;;;3.00;;
68951;SDS011;56000;51.146;17.112;2023-02-01T15:25:49;13.50;;;3.50;;
68951;SDS011;56000;51.146;17.112;2023-02-01T15:28:23;10.00;;;2.50;;
68951;SDS011;56000;51.146;17.112;2023-02-01T15:30:58;6.70;;;2.60;;
68951;SDS011;56000;51.146;17.112;2023-02-01T15:33:33;9.30;;;2.80;;
68951;SDS011;56000;51.146;17.112;2023-02-01T15:36:11;10.70;;;2.80;;
68951;SDS011;56000;51.146;17.112;2023-02-01T15:41:51;9.20;;;3.00;;
68951;SDS011;56000;51.146;17.112;2023-02-01T15:44:43;9.70;;;2.90;;
68951;SDS011;56000;51.146;17.112;2023-02-01T15:47:19;7.50;;;2.40;;
68951;SDS011;56000;51.146;17.112;2023-02-01T15:49:55;14.60;;;3.30;;
68951;SDS011;56000;51.146;17.112;2023-02-01T15:52:34;8.00;;;2.80;;
68951;SDS011;56000;51.146;17.112;2023-02-01T15:55:18;9.30;;;2.80;;
68951;SDS011;56000;51.146;17.112;2023-02-01T15:57:55;12.10;;;3.10;;